Arroio do Meio, Brazil
Current Conditions -  °F | °C
As of 3:00 PM on Saturday 20 Dec 2014 (Local Time) from SBCO Reporting Station
Few Clouds Few Clouds  
Wind Chill: 95°   Ceiling: Unl
Heat Index: 98°   Visibility: 6mi
Dew Point: 66°   Wind: 10mph
Humidity: 39%   Direction: 320°NW
Pressure: 29.59"   Gusts: NA
Location:  29.4°S, 51.94°W
Report Text: SBCO 201700Z 32009KT 210V350 9999 FEW040 35/19 Q1002
Loading
Personal Weather Stations






























Interactive Weather Map New forecast layout! Learn more

10-Day Weather Forecast

Advertisements
Track Severe Weather on mobile